createdAt,value
2022-11-04T00:00:30.146Z,6.94
2022-11-04T00:02:58.688Z,7.55
2022-11-04T00:05:26.745Z,7.33
2022-11-04T00:08:13.740Z,7.27
2022-11-04T00:10:58.890Z,7.40
2022-11-04T00:13:26.969Z,7.47
2022-11-04T00:16:12.460Z,6.71
2022-11-04T00:18:40.489Z,7.60
2022-11-04T00:21:26.286Z,7.66
2022-11-04T00:24:13.038Z,7.33
2022-11-04T00:26:54.932Z,7.77
2022-11-04T00:29:23.129Z,7.82
2022-11-04T00:32:23.535Z,7.22
2022-11-04T00:34:51.677Z,7.70
2022-11-04T00:37:19.866Z,7.33
2022-11-04T00:39:49.280Z,7.99
2022-11-04T00:42:17.396Z,7.63
2022-11-04T00:44:45.642Z,7.88
2022-11-04T00:47:13.793Z,7.82
2022-11-04T00:49:43.662Z,7.91
2022-11-04T00:52:11.754Z,7.29
2022-11-04T00:54:39.826Z,7.81
2022-11-04T00:57:11.985Z,8.01
2022-11-04T00:59:40.686Z,7.73
2022-11-04T01:02:11.037Z,8.05
2022-11-04T01:04:39.204Z,7.95
2022-11-04T01:07:07.430Z,7.97
2022-11-04T01:09:35.616Z,7.59
2022-11-04T01:12:03.621Z,8.06
2022-11-04T01:14:33.181Z,8.04
2022-11-04T01:17:01.418Z,8.13
2022-11-04T01:19:29.584Z,7.99
2022-11-04T01:21:57.649Z,8.18
2022-11-04T01:24:25.727Z,7.91
2022-11-04T01:26:53.902Z,7.91
2022-11-04T01:29:21.966Z,7.95
2022-11-04T01:31:51.701Z,8.18
2022-11-04T01:34:19.728Z,8.20
2022-11-04T01:36:47.940Z,8.22
2022-11-04T01:39:16.121Z,8.25
2022-11-04T01:41:44.333Z,8.28
2022-11-04T01:45:01.299Z,8.26
2022-11-04T01:47:36.006Z,8.22
2022-11-04T01:50:08.430Z,8.25
2022-11-04T01:52:39.870Z,8.33
2022-11-04T01:55:11.513Z,8.21
2022-11-04T01:57:43.402Z,8.30
2022-11-04T02:00:13.561Z,8.01
2022-11-04T02:02:52.285Z,7.80
2022-11-04T02:05:20.642Z,8.46
2022-11-04T02:07:52.190Z,8.42
2022-11-04T02:10:22.703Z,8.30
2022-11-04T02:12:49.882Z,8.38
2022-11-04T02:15:20.173Z,8.39
2022-11-04T02:18:15.145Z,8.26
2022-11-04T02:21:01.333Z,7.60
2022-11-04T02:23:52.733Z,8.34
2022-11-04T02:27:04.926Z,8.39
2022-11-04T02:29:51.430Z,8.34
2022-11-04T02:32:25.777Z,8.23
2022-11-04T02:35:04.930Z,8.42
2022-11-04T02:37:43.157Z,7.48
2022-11-04T02:40:21.085Z,8.46
2022-11-04T02:42:54.918Z,8.47
2022-11-04T02:45:26.136Z,7.85
2022-11-04T02:47:58.456Z,8.51
2022-11-04T02:50:34.314Z,8.31
2022-11-04T02:53:06.830Z,8.44
2022-11-04T02:55:36.981Z,8.29
2022-11-04T02:58:08.262Z,8.36
2022-11-04T03:00:38.493Z,8.62
2022-11-04T03:03:09.803Z,8.65
2022-11-04T03:05:40.226Z,8.68
2022-11-04T03:08:11.678Z,8.70
2022-11-04T03:10:43.208Z,8.42
2022-11-04T03:13:13.981Z,8.66
2022-11-04T03:15:50.026Z,8.58
2022-11-04T03:18:24.523Z,8.41
2022-11-04T03:20:53.118Z,8.53
2022-11-04T03:23:21.251Z,8.30
2022-11-04T03:25:52.531Z,8.54
2022-11-04T03:28:27.271Z,8.62
2022-11-04T03:31:00.579Z,8.48
2022-11-04T03:33:34.201Z,8.62
2022-11-04T03:36:03.144Z,8.65
2022-11-04T03:38:31.460Z,8.72
2022-11-04T03:41:01.167Z,8.77
2022-11-04T03:43:29.766Z,8.58
2022-11-04T03:45:59.440Z,8.74
2022-11-04T03:48:28.131Z,8.86
2022-11-04T03:50:56.236Z,9.11
2022-11-04T03:56:11.444Z,9.55
2022-11-04T03:58:45.568Z,9.57
2022-11-04T04:01:31.683Z,10.10
2022-11-04T04:04:02.683Z,9.83
2022-11-04T04:06:32.715Z,10.14
2022-11-04T04:09:05.774Z,9.06
2022-11-04T04:11:40.820Z,10.22
2022-11-04T04:14:36.746Z,10.20
2022-11-04T04:19:38.216Z,10.29
2022-11-04T04:22:11.011Z,10.26
2022-11-04T04:24:58.933Z,10.28
2022-11-04T04:27:33.062Z,10.19
2022-11-04T04:30:03.674Z,10.22
2022-11-04T04:32:36.775Z,9.91
2022-11-04T04:35:22.775Z,9.98
2022-11-04T04:37:51.863Z,10.32
2022-11-04T04:40:39.286Z,10.29
2022-11-04T04:43:25.087Z,10.10
2022-11-04T04:45:55.219Z,10.15
2022-11-04T04:48:24.718Z,10.17
2022-11-04T04:50:56.958Z,10.06
2022-11-04T04:53:25.049Z,10.30
2022-11-04T04:55:53.085Z,9.94
2022-11-04T04:58:21.279Z,9.90
2022-11-04T05:00:49.466Z,10.36
2022-11-04T05:03:17.655Z,10.23
2022-11-04T05:05:47.118Z,10.20
2022-11-04T05:08:15.233Z,10.37
2022-11-04T05:10:43.258Z,10.36
2022-11-04T05:13:30.641Z,10.37
2022-11-04T05:15:58.807Z,10.34
2022-11-04T05:18:26.920Z,10.33
2022-11-04T05:20:56.318Z,10.36
2022-11-04T05:23:24.355Z,10.12
2022-11-04T05:25:52.348Z,10.29
2022-11-04T05:28:20.315Z,10.22
2022-11-04T05:30:48.298Z,10.20
2022-11-04T05:33:16.304Z,9.60
2022-11-04T05:35:44.323Z,10.23
2022-11-04T05:38:13.819Z,10.21
2022-11-04T05:40:41.841Z,10.23
2022-11-04T05:43:10.091Z,10.25
2022-11-04T05:45:38.434Z,10.25
2022-11-04T05:48:06.880Z,10.28
2022-11-04T05:50:35.097Z,10.31
2022-11-04T05:53:03.247Z,10.32
2022-11-04T05:55:32.686Z,10.29
2022-11-04T05:58:00.751Z,10.35
2022-11-04T06:00:29.290Z,10.30
2022-11-04T06:02:58.720Z,10.25
2022-11-04T06:05:29.320Z,10.37
2022-11-04T06:07:58.340Z,10.21
2022-11-04T06:10:26.793Z,9.78
2022-11-04T06:12:56.221Z,10.10
2022-11-04T06:15:24.366Z,10.26
2022-11-04T06:17:52.641Z,10.29
2022-11-04T06:20:21.186Z,10.28
2022-11-04T06:22:49.254Z,10.30
2022-11-04T06:25:17.465Z,10.27
2022-11-04T06:27:45.766Z,10.26
2022-11-04T06:30:15.414Z,10.21
2022-11-04T06:32:43.568Z,10.21
2022-11-04T06:35:11.605Z,10.27
2022-11-04T06:37:39.689Z,10.29
2022-11-04T06:40:09.299Z,10.21
2022-11-04T06:42:37.426Z,9.94
2022-11-04T06:45:06.145Z,10.28
2022-11-04T06:47:35.843Z,10.20
2022-11-04T06:50:08.311Z,10.24
2022-11-04T06:52:41.946Z,10.16
2022-11-04T06:55:11.172Z,10.20
2022-11-04T06:57:39.342Z,9.84
2022-11-04T07:00:09.101Z,10.24
2022-11-04T07:02:39.124Z,10.31
2022-11-04T07:05:09.069Z,10.20
2022-11-04T07:07:41.488Z,10.37
2022-11-04T07:10:11.754Z,10.38
2022-11-04T07:12:40.011Z,10.23
2022-11-04T07:15:09.300Z,10.35
2022-11-04T07:17:38.756Z,10.39
2022-11-04T07:20:07.824Z,10.20
2022-11-04T07:22:35.926Z,10.34
2022-11-04T07:25:04.457Z,10.31
2022-11-04T07:27:32.566Z,10.36
2022-11-04T07:30:00.713Z,9.79
2022-11-04T07:32:29.070Z,10.26
2022-11-04T07:34:58.531Z,10.31
2022-11-04T07:37:26.934Z,10.26
2022-11-04T07:39:55.123Z,10.28
2022-11-04T07:42:23.112Z,10.38
2022-11-04T07:44:51.087Z,10.25
2022-11-04T07:47:19.113Z,10.32
2022-11-04T07:49:47.160Z,10.36
2022-11-04T07:52:16.727Z,10.20
2022-11-04T07:54:44.787Z,10.23
2022-11-04T07:57:12.851Z,10.01
2022-11-04T07:59:41.256Z,10.21
2022-11-04T08:02:11.342Z,10.19
2022-11-04T08:04:40.697Z,10.07
2022-11-04T08:07:09.845Z,10.17
2022-11-04T08:09:39.365Z,9.72
2022-11-04T08:12:08.074Z,10.14
2022-11-04T08:14:36.251Z,10.05
2022-11-04T08:17:04.991Z,10.09
2022-11-04T08:19:33.324Z,10.24
2022-11-04T08:26:26.025Z,10.06
2022-11-04T08:29:28.845Z,10.07
2022-11-04T08:32:17.565Z,10.04
2022-11-04T08:34:57.639Z,10.03
2022-11-04T08:37:25.707Z,10.02
2022-11-04T08:39:53.832Z,10.04
2022-11-04T08:42:23.319Z,9.63
2022-11-04T08:44:52.681Z,9.51
2022-11-04T08:47:20.866Z,10.01
2022-11-04T08:49:49.284Z,10.11
2022-11-04T08:52:18.028Z,9.93
2022-11-04T08:54:46.049Z,10.11
2022-11-04T08:57:14.620Z,10.10
2022-11-04T08:59:44.093Z,10.09
2022-11-04T09:02:15.646Z,10.01
2022-11-04T09:04:44.327Z,9.48
2022-11-04T09:07:13.530Z,10.07
2022-11-04T09:09:42.508Z,10.04
2022-11-04T09:12:11.377Z,9.87
2022-11-04T09:14:39.577Z,9.90
2022-11-04T09:17:08.993Z,9.90
2022-11-04T09:19:37.047Z,10.00
2022-11-04T09:22:05.228Z,10.01
2022-11-04T09:24:33.283Z,9.96
2022-11-04T09:27:01.487Z,10.00
2022-11-04T09:29:33.620Z,9.97
2022-11-04T09:32:02.378Z,10.03
2022-11-04T09:34:32.279Z,9.77
2022-11-04T09:37:01.059Z,9.88
2022-11-04T09:39:29.189Z,9.84
2022-11-04T09:42:19.825Z,9.83
2022-11-04T09:45:21.087Z,9.85
2022-11-04T09:47:40.839Z,9.90
2022-11-04T09:50:19.967Z,9.92
2022-11-04T09:52:51.215Z,9.97
2022-11-04T09:55:22.506Z,10.03
2022-11-04T09:57:55.817Z,10.11
2022-11-04T10:00:24.096Z,9.98
2022-11-04T10:03:03.153Z,10.00
2022-11-04T10:05:46.485Z,9.59
2022-11-04T10:08:33.903Z,10.12
2022-11-04T10:11:09.955Z,10.15
2022-11-04T10:13:48.032Z,10.21
2022-11-04T10:16:25.607Z,10.25
2022-11-04T10:19:17.153Z,10.36
2022-11-04T10:22:06.049Z,10.40
2022-11-04T10:24:43.528Z,10.42
2022-11-04T10:27:16.966Z,10.46
2022-11-04T10:29:46.908Z,10.45
2022-11-04T10:32:22.356Z,10.04
2022-11-04T10:34:58.219Z,10.19
2022-11-04T10:37:30.885Z,10.19
2022-11-04T10:40:05.233Z,10.09
2022-11-04T10:42:33.877Z,10.03
2022-11-04T10:45:02.283Z,10.23
2022-11-04T10:47:38.875Z,10.20
2022-11-04T10:50:29.465Z,10.24
2022-11-04T10:53:11.833Z,10.13
2022-11-04T10:55:46.189Z,10.32
2022-11-04T10:58:19.744Z,10.39
2022-11-04T11:00:48.345Z,10.43
2022-11-04T11:03:32.372Z,10.39
2022-11-04T11:06:16.898Z,10.45
2022-11-04T11:08:48.039Z,10.60
2022-11-04T11:11:17.436Z,10.62
2022-11-04T11:13:46.820Z,10.56
2022-11-04T11:16:19.641Z,10.61
2022-11-04T11:19:15.093Z,10.68
2022-11-04T11:21:48.871Z,10.66
2022-11-04T11:24:21.560Z,10.64
2022-11-04T11:26:50.980Z,10.62
2022-11-04T11:29:23.125Z,10.13
2022-11-04T11:31:52.969Z,10.49
2022-11-04T11:34:26.434Z,10.41
2022-11-04T11:36:55.894Z,10.38
2022-11-04T11:39:28.818Z,10.49
2022-11-04T11:41:59.542Z,10.45
2022-11-04T11:44:33.138Z,10.43
2022-11-04T11:47:04.511Z,10.45
2022-11-04T11:49:34.575Z,10.35
2022-11-04T11:52:26.335Z,10.38
2022-11-04T11:55:03.196Z,9.98
2022-11-04T11:57:37.419Z,10.28
2022-11-04T12:03:01.649Z,10.22
2022-11-04T12:11:38.748Z,10.27
2022-11-04T12:14:07.677Z,10.22
2022-11-04T12:16:41.715Z,10.02
2022-11-04T12:19:17.933Z,10.06
2022-11-04T12:21:48.895Z,10.10
2022-11-04T12:24:28.655Z,10.14
2022-11-04T12:27:03.849Z,10.13
2022-11-04T12:29:41.107Z,9.61
2022-11-04T12:32:15.056Z,9.44
2022-11-04T12:34:54.551Z,9.77
2022-11-04T12:37:30.025Z,8.74
2022-11-04T12:40:08.705Z,9.77
2022-11-04T12:42:46.464Z,9.70
2022-11-04T12:45:26.147Z,9.57
2022-11-04T12:47:57.426Z,9.33
2022-11-04T12:50:38.821Z,9.28
2022-11-04T12:53:18.434Z,9.19
2022-11-04T12:55:53.173Z,9.14
2022-11-04T12:58:40.554Z,9.15
2022-11-04T13:01:15.255Z,9.10
2022-11-04T13:03:49.092Z,8.81
2022-11-04T13:06:19.070Z,8.63
2022-11-04T13:08:51.193Z,8.70
2022-11-04T13:11:24.489Z,8.66
2022-11-04T13:14:02.021Z,8.61
2022-11-04T13:16:31.943Z,8.49
2022-11-04T13:19:00.860Z,8.48
2022-11-04T13:21:32.320Z,8.20
2022-11-04T13:24:04.387Z,8.24
2022-11-04T13:26:34.171Z,8.19
2022-11-04T13:29:09.267Z,8.13
2022-11-04T13:31:48.056Z,8.01
2022-11-04T13:34:23.883Z,8.00
2022-11-04T13:36:57.978Z,8.11
2022-11-04T13:39:29.345Z,8.16
2022-11-04T13:42:24.688Z,8.02
2022-11-04T13:44:58.076Z,7.75
2022-11-04T13:47:28.139Z,7.81
2022-11-04T13:49:57.366Z,7.27
2022-11-04T13:52:28.306Z,7.91
2022-11-04T13:54:59.545Z,8.02
2022-11-04T13:57:29.173Z,7.73
2022-11-04T14:00:27.102Z,7.93
2022-11-04T14:02:57.843Z,7.92
2022-11-04T14:06:03.471Z,7.78
2022-11-04T14:08:31.917Z,7.76
2022-11-04T14:11:11.331Z,7.87
2022-11-04T14:14:03.579Z,7.82
2022-11-04T14:16:47.164Z,7.57
2022-11-04T14:19:57.211Z,7.63
2022-11-04T14:22:33.799Z,7.45
2022-11-04T14:25:03.938Z,7.47
2022-11-04T14:27:41.109Z,7.43
2022-11-04T14:30:33.202Z,7.44
2022-11-04T14:33:04.165Z,7.45
2022-11-04T14:35:32.903Z,7.43
2022-11-04T14:38:08.243Z,7.09
2022-11-04T14:40:48.674Z,7.06
2022-11-04T14:43:35.042Z,7.06
2022-11-04T14:46:07.352Z,6.90
2022-11-04T14:48:37.075Z,6.86
2022-11-04T14:51:05.673Z,6.66
2022-11-04T14:53:35.332Z,6.71
2022-11-04T14:56:08.445Z,6.73
2022-11-04T14:58:37.619Z,6.55
2022-11-04T15:01:07.705Z,5.84
2022-11-04T15:04:10.875Z,6.00
2022-11-04T15:06:40.587Z,6.62
2022-11-04T15:09:24.048Z,6.50
2022-11-04T15:12:11.162Z,6.60
2022-11-04T15:14:39.323Z,6.74
2022-11-04T15:17:07.381Z,6.79
2022-11-04T15:19:38.093Z,6.60
2022-11-04T15:22:07.716Z,5.95
2022-11-04T15:24:36.365Z,6.22
2022-11-04T15:27:06.937Z,6.14
2022-11-04T15:29:35.109Z,6.26
2022-11-04T15:32:05.441Z,6.19
2022-11-04T15:34:35.175Z,6.42
2022-11-04T15:37:06.396Z,6.33
2022-11-04T15:39:37.694Z,6.22
2022-11-04T15:42:25.381Z,6.07
2022-11-04T15:44:55.758Z,5.98
2022-11-04T15:47:25.204Z,6.05
2022-11-04T15:49:54.831Z,5.98
2022-11-04T15:52:25.937Z,6.08
2022-11-04T15:54:55.314Z,5.59
2022-11-04T15:57:25.472Z,5.96
2022-11-04T16:00:01.592Z,5.92
2022-11-04T16:02:31.138Z,5.91
2022-11-04T16:05:08.354Z,5.91
2022-11-04T16:07:40.818Z,5.92
2022-11-04T16:10:31.749Z,5.98
2022-11-04T16:13:02.690Z,5.89
2022-11-04T16:15:33.416Z,5.94
2022-11-04T16:18:01.848Z,5.87
2022-11-04T16:20:31.068Z,5.74
2022-11-04T16:23:03.201Z,5.75
2022-11-04T16:25:33.505Z,5.82
2022-11-04T16:28:01.844Z,5.91
2022-11-04T16:30:30.233Z,6.00
2022-11-04T16:33:10.556Z,5.94
2022-11-04T16:35:42.640Z,5.85
2022-11-04T16:38:13.080Z,5.76
2022-11-04T16:40:41.544Z,5.73
2022-11-04T17:05:14.685Z,5.52
2022-11-04T17:07:53.632Z,5.68
2022-11-04T17:10:31.434Z,5.58
2022-11-04T17:13:09.599Z,5.65
2022-11-04T17:16:13.657Z,5.65
2022-11-04T17:19:00.009Z,5.68
2022-11-04T17:21:38.398Z,5.72
2022-11-04T17:24:11.479Z,5.76
2022-11-04T17:29:39.800Z,5.79
2022-11-04T17:32:16.749Z,5.69
2022-11-04T17:34:47.889Z,5.75
2022-11-04T17:37:24.037Z,5.66
2022-11-04T17:39:52.411Z,5.67
2022-11-04T17:42:38.243Z,5.46
2022-11-04T17:45:07.850Z,5.77
2022-11-04T17:47:37.515Z,5.81
2022-11-04T17:50:08.463Z,5.78
2022-11-04T17:52:40.096Z,5.82
2022-11-04T17:55:15.445Z,5.82
2022-11-04T17:57:45.812Z,5.69
2022-11-04T18:00:16.339Z,5.44
2022-11-04T18:02:44.786Z,5.53
2022-11-04T18:05:13.525Z,5.52
2022-11-04T18:07:43.765Z,5.67
2022-11-04T18:10:13.031Z,5.63
2022-11-04T18:12:42.047Z,5.75
2022-11-04T18:15:12.918Z,5.78
2022-11-04T18:17:43.622Z,5.78
2022-11-04T18:20:15.787Z,5.69
2022-11-04T18:22:47.449Z,5.54
2022-11-04T18:25:16.178Z,5.78
2022-11-04T18:27:44.980Z,5.69
2022-11-04T18:30:16.071Z,5.68
2022-11-04T18:32:44.591Z,5.81
2022-11-04T18:35:15.331Z,5.93
2022-11-04T18:37:47.529Z,5.95
2022-11-04T18:40:16.383Z,5.99
2022-11-04T18:42:48.865Z,6.07
2022-11-04T18:45:17.993Z,5.81
2022-11-04T18:47:49.115Z,6.12
2022-11-04T18:50:18.106Z,6.07
2022-11-04T18:52:51.376Z,6.03
2022-11-04T18:55:20.595Z,5.96
2022-11-04T18:57:55.926Z,5.97
2022-11-04T19:00:24.415Z,5.95
2022-11-04T19:02:53.156Z,5.99
2022-11-04T19:05:21.991Z,6.00
2022-11-04T19:07:51.975Z,5.96
2022-11-04T19:10:23.306Z,6.04
2022-11-04T19:13:09.437Z,6.14
2022-11-04T19:15:37.773Z,6.19
2022-11-04T19:18:12.103Z,6.25
2022-11-04T19:20:59.601Z,6.30
2022-11-04T19:23:31.936Z,6.30
2022-11-04T19:26:02.380Z,6.29
2022-11-04T19:28:46.852Z,6.35
2022-11-04T19:31:17.321Z,6.36
2022-11-04T19:33:45.979Z,6.40
2022-11-04T19:36:15.568Z,6.47
2022-11-04T19:38:56.696Z,6.47
2022-11-04T19:42:03.110Z,6.55
2022-11-04T19:44:33.069Z,6.56
2022-11-04T19:47:01.463Z,6.61
2022-11-04T19:49:31.622Z,6.64
2022-11-04T19:51:59.978Z,6.59
2022-11-04T19:54:29.876Z,6.66
2022-11-04T19:56:58.182Z,6.60
2022-11-04T19:59:26.786Z,6.56
2022-11-04T20:01:55.148Z,6.52
2022-11-04T20:04:23.655Z,6.50
2022-11-04T20:06:51.893Z,6.59
2022-11-04T20:09:22.488Z,6.58
2022-11-04T20:12:09.797Z,6.57
2022-11-04T20:14:38.500Z,6.58
2022-11-04T20:17:07.480Z,6.53
2022-11-04T20:19:38.421Z,6.49
2022-11-04T20:22:10.772Z,6.49
2022-11-04T20:24:39.286Z,6.52
2022-11-04T20:27:09.124Z,6.51
2022-11-04T20:29:37.334Z,6.54
2022-11-04T20:32:06.323Z,6.52
2022-11-04T20:34:34.924Z,6.45
2022-11-04T20:37:03.587Z,6.61
2022-11-04T20:39:32.459Z,6.65
2022-11-04T20:42:00.747Z,6.72
2022-11-04T20:44:30.224Z,6.71
2022-11-04T20:46:58.522Z,6.78
2022-11-04T20:49:26.817Z,6.76
2022-11-04T20:51:56.650Z,6.80
2022-11-04T20:54:25.411Z,6.82
2022-11-04T20:56:53.612Z,6.83
2022-11-04T20:59:21.930Z,6.81
2022-11-04T21:01:51.739Z,6.78
2022-11-04T21:04:21.999Z,6.74
2022-11-04T21:06:51.809Z,6.80
2022-11-04T21:09:21.450Z,6.77
2022-11-04T21:11:50.352Z,6.63
2022-11-04T21:14:19.749Z,6.71
2022-11-04T21:16:48.486Z,6.68
2022-11-04T21:19:18.103Z,6.74
2022-11-04T21:21:47.650Z,6.77
2022-11-04T21:24:16.965Z,6.76
2022-11-04T21:26:45.701Z,6.78
2022-11-04T21:29:15.471Z,6.71
2022-11-04T21:31:44.066Z,6.75
2022-11-04T21:34:12.865Z,6.74
2022-11-04T21:36:42.578Z,6.70
2022-11-04T21:39:13.007Z,6.63
2022-11-04T21:41:41.377Z,6.60
2022-11-04T21:44:11.827Z,6.59
2022-11-04T21:46:40.080Z,6.56
2022-11-04T21:49:08.326Z,6.52
2022-11-04T21:51:36.839Z,6.40
2022-11-04T21:54:09.001Z,6.46
2022-11-04T21:56:37.856Z,6.44
2022-11-04T21:59:06.682Z,6.39
2022-11-04T22:01:34.942Z,6.35
2022-11-04T22:04:03.724Z,6.38
2022-11-04T22:06:35.318Z,6.31
2022-11-04T22:09:06.471Z,6.09
2022-11-04T22:11:39.973Z,6.25
2022-11-04T22:14:12.803Z,6.24
2022-11-04T22:16:41.783Z,6.24
2022-11-04T22:19:13.811Z,6.20
2022-11-04T22:21:46.384Z,6.04
2022-11-04T22:24:17.282Z,6.06
2022-11-04T22:26:46.120Z,6.04
2022-11-04T22:29:14.588Z,6.05
2022-11-04T22:31:44.743Z,6.09
2022-11-04T22:34:13.631Z,6.11
2022-11-04T22:36:44.767Z,6.11
2022-11-04T22:39:16.812Z,6.14
2022-11-04T22:41:48.066Z,6.13
2022-11-04T22:44:16.518Z,5.88
2022-11-04T22:46:47.477Z,6.06
2022-11-04T22:49:15.815Z,5.80
2022-11-04T22:51:43.975Z,5.98
2022-11-04T22:54:12.322Z,5.95
2022-11-04T22:56:40.826Z,5.93
2022-11-04T22:59:11.627Z,5.86
2022-11-04T23:01:43.122Z,5.87
2022-11-04T23:04:14.715Z,5.79
2022-11-04T23:06:44.055Z,5.75
2022-11-04T23:09:15.134Z,5.66
2022-11-04T23:12:01.170Z,5.64
2022-11-04T23:14:48.450Z,5.64
2022-11-04T23:17:36.374Z,5.58
2022-11-04T23:20:07.552Z,5.59
2022-11-04T23:23:01.443Z,5.51
2022-11-04T23:25:29.987Z,5.53
2022-11-04T23:31:12.491Z,5.57
2022-11-04T23:33:59.288Z,5.56
2022-11-04T23:36:44.670Z,5.61
2022-11-04T23:39:12.834Z,5.61
2022-11-04T23:41:58.818Z,5.61
2022-11-04T23:44:44.066Z,5.52
2022-11-04T23:47:29.785Z,5.51
2022-11-04T23:50:16.839Z,5.53
2022-11-04T23:53:02.517Z,5.18
2022-11-04T23:55:48.178Z,5.53
2022-11-04T23:58:33.552Z,5.48
